sensor_id;sensor_type;location;lat;lon;timestamp;temperature;humidity
53310;DHT22;39197;53.200;5.792;2022-10-16T00:01:08;13.00;99.90
53310;DHT22;39197;53.200;5.792;2022-10-16T00:03:34;13.00;99.90
53310;DHT22;39197;53.200;5.792;2022-10-16T00:06:00;13.00;99.90
53310;DHT22;39197;53.200;5.792;2022-10-16T00:08:26;13.00;99.90
53310;DHT22;39197;53.200;5.792;2022-10-16T00:10:52;13.00;99.90
53310;DHT22;39197;53.200;5.792;2022-10-16T00:13:17;13.00;99.90
53310;DHT22;39197;53.200;5.792;2022-10-16T00:15:45;13.00;99.90
53310;DHT22;39197;53.200;5.792;2022-10-16T00:18:11;13.00;99.90
53310;DHT22;39197;53.200;5.792;2022-10-16T00:20:37;13.00;99.90
53310;DHT22;39197;53.200;5.792;2022-10-16T00:23:03;13.00;99.90
53310;DHT22;39197;53.200;5.792;2022-10-16T00:25:30;13.00;99.90
53310;DHT22;39197;53.200;5.792;2022-10-16T00:27:58;13.00;99.90
53310;DHT22;39197;53.200;5.792;2022-10-16T00:30:24;13.00;99.90
53310;DHT22;39197;53.200;5.792;2022-10-16T00:32:52;13.10;99.90
53310;DHT22;39197;53.200;5.792;2022-10-16T00:35:17;13.10;99.90
53310;DHT22;39197;53.200;5.792;2022-10-16T00:37:43;13.10;99.90
53310;DHT22;39197;53.200;5.792;2022-10-16T00:40:09;13.10;99.90
53310;DHT22;39197;53.200;5.792;2022-10-16T00:42:35;13.10;99.90
53310;DHT22;39197;53.200;5.792;2022-10-16T00:45:01;13.10;99.90
53310;DHT22;39197;53.200;5.792;2022-10-16T00:47:30;13.10;99.90
53310;DHT22;39197;53.200;5.792;2022-10-16T00:50:09;13.10;99.90
53310;DHT22;39197;53.200;5.792;2022-10-16T00:52:37;13.10;99.90
53310;DHT22;39197;53.200;5.792;2022-10-16T00:55:05;13.10;99.90
53310;DHT22;39197;53.200;5.792;2022-10-16T00:57:31;13.10;99.90
53310;DHT22;39197;53.200;5.792;2022-10-16T00:59:57;13.10;99.90
53310;DHT22;39197;53.200;5.792;2022-10-16T01:02:24;13.10;99.90
53310;DHT22;39197;53.200;5.792;2022-10-16T01:04:51;13.20;99.90
53310;DHT22;39197;53.200;5.792;2022-10-16T01:07:41;13.10;99.90
53310;DHT22;39197;53.200;5.792;2022-10-16T01:12:56;13.20;99.90
53310;DHT22;39197;53.200;5.792;2022-10-16T01:15:36;13.20;99.90
53310;DHT22;39197;53.200;5.792;2022-10-16T01:21:00;13.30;99.90
53310;DHT22;39197;53.200;5.792;2022-10-16T01:29:48;13.30;99.90
53310;DHT22;39197;53.200;5.792;2022-10-16T01:32:24;13.30;99.90
53310;DHT22;39197;53.200;5.792;2022-10-16T01:34:58;13.20;99.90
53310;DHT22;39197;53.200;5.792;2022-10-16T01:37:33;13.30;99.90
53310;DHT22;39197;53.200;5.792;2022-10-16T01:40:03;13.30;99.90
53310;DHT22;39197;53.200;5.792;2022-10-16T01:42:35;13.30;99.90
53310;DHT22;39197;53.200;5.792;2022-10-16T01:45:02;13.40;99.90
53310;DHT22;39197;53.200;5.792;2022-10-16T01:47:32;13.40;99.90
53310;DHT22;39197;53.200;5.792;2022-10-16T01:50:00;13.50;99.90
53310;DHT22;39197;53.200;5.792;2022-10-16T01:52:28;13.40;99.90
53310;DHT22;39197;53.200;5.792;2022-10-16T01:54:55;13.30;99.90
53310;DHT22;39197;53.200;5.792;2022-10-16T01:57:24;13.20;99.90
53310;DHT22;39197;53.200;5.792;2022-10-16T01:59:56;13.20;99.90
53310;DHT22;39197;53.200;5.792;2022-10-16T02:02:27;13.10;99.90
53310;DHT22;39197;53.200;5.792;2022-10-16T02:07:41;13.00;99.90
53310;DHT22;39197;53.200;5.792;2022-10-16T02:10:08;13.00;99.90
53310;DHT22;39197;53.200;5.792;2022-10-16T02:12:36;13.00;99.90
53310;DHT22;39197;53.200;5.792;2022-10-16T02:15:05;12.90;99.90
53310;DHT22;39197;53.200;5.792;2022-10-16T02:17:31;12.80;99.90
53310;DHT22;39197;53.200;5.792;2022-10-16T02:19:57;12.80;99.90
53310;DHT22;39197;53.200;5.792;2022-10-16T02:22:28;12.80;99.90
53310;DHT22;39197;53.200;5.792;2022-10-16T02:25:17;12.80;99.90
53310;DHT22;39197;53.200;5.792;2022-10-16T02:28:10;12.80;99.90
53310;DHT22;39197;53.200;5.792;2022-10-16T02:30:44;12.80;99.90
53310;DHT22;39197;53.200;5.792;2022-10-16T02:33:11;12.80;99.90
53310;DHT22;39197;53.200;5.792;2022-10-16T02:35:40;12.80;99.90
53310;DHT22;39197;53.200;5.792;2022-10-16T02:38:07;12.80;99.90
53310;DHT22;39197;53.200;5.792;2022-10-16T02:40:33;12.80;99.90
53310;DHT22;39197;53.200;5.792;2022-10-16T02:42:59;12.80;99.90
53310;DHT22;39197;53.200;5.792;2022-10-16T02:45:25;12.80;99.90
53310;DHT22;39197;53.200;5.792;2022-10-16T02:47:51;12.80;99.90
53310;DHT22;39197;53.200;5.792;2022-10-16T02:50:16;12.80;99.90
53310;DHT22;39197;53.200;5.792;2022-10-16T02:52:42;12.80;99.90
53310;DHT22;39197;53.200;5.792;2022-10-16T02:55:08;12.80;99.90
53310;DHT22;39197;53.200;5.792;2022-10-16T02:57:33;12.80;99.90
53310;DHT22;39197;53.200;5.792;2022-10-16T02:59:59;12.70;99.90
53310;DHT22;39197;53.200;5.792;2022-10-16T03:02:25;12.70;99.90
53310;DHT22;39197;53.200;5.792;2022-10-16T03:04:50;12.70;99.90
53310;DHT22;39197;53.200;5.792;2022-10-16T03:07:16;12.70;99.90
53310;DHT22;39197;53.200;5.792;2022-10-16T03:09:41;12.70;99.90
53310;DHT22;39197;53.200;5.792;2022-10-16T03:12:07;12.60;99.90
53310;DHT22;39197;53.200;5.792;2022-10-16T03:14:34;12.60;99.90
53310;DHT22;39197;53.200;5.792;2022-10-16T03:17:00;12.50;99.90
53310;DHT22;39197;53.200;5.792;2022-10-16T03:19:25;12.50;99.90
53310;DHT22;39197;53.200;5.792;2022-10-16T03:21:51;12.50;99.90
53310;DHT22;39197;53.200;5.792;2022-10-16T03:24:16;12.50;99.90
53310;DHT22;39197;53.200;5.792;2022-10-16T03:26:42;12.50;99.90
53310;DHT22;39197;53.200;5.792;2022-10-16T03:29:07;12.60;99.90
53310;DHT22;39197;53.200;5.792;2022-10-16T03:31:33;12.60;99.90
53310;DHT22;39197;53.200;5.792;2022-10-16T03:33:59;12.60;99.90
53310;DHT22;39197;53.200;5.792;2022-10-16T03:36:24;12.60;99.90
53310;DHT22;39197;53.200;5.792;2022-10-16T03:38:50;12.80;99.90
53310;DHT22;39197;53.200;5.792;2022-10-16T03:41:15;12.80;99.90
53310;DHT22;39197;53.200;5.792;2022-10-16T03:43:41;12.80;99.90
53310;DHT22;39197;53.200;5.792;2022-10-16T03:46:07;12.90;99.90
53310;DHT22;39197;53.200;5.792;2022-10-16T03:48:32;12.90;99.90
53310;DHT22;39197;53.200;5.792;2022-10-16T03:50:58;12.90;99.90
53310;DHT22;39197;53.200;5.792;2022-10-16T03:53:24;13.00;99.90
53310;DHT22;39197;53.200;5.792;2022-10-16T03:55:50;13.00;99.90
53310;DHT22;39197;53.200;5.792;2022-10-16T03:58:16;13.00;99.90
53310;DHT22;39197;53.200;5.792;2022-10-16T04:00:43;13.10;99.90
53310;DHT22;39197;53.200;5.792;2022-10-16T04:03:10;13.10;99.90
53310;DHT22;39197;53.200;5.792;2022-10-16T04:05:35;13.10;99.90
53310;DHT22;39197;53.200;5.792;2022-10-16T04:08:01;13.10;99.90
53310;DHT22;39197;53.200;5.792;2022-10-16T04:10:26;13.00;99.90
53310;DHT22;39197;53.200;5.792;2022-10-16T04:12:52;12.90;99.90
53310;DHT22;39197;53.200;5.792;2022-10-16T04:15:21;12.80;99.90
53310;DHT22;39197;53.200;5.792;2022-10-16T04:17:47;12.80;99.90
53310;DHT22;39197;53.200;5.792;2022-10-16T04:20:12;12.80;99.90
53310;DHT22;39197;53.200;5.792;2022-10-16T04:22:38;12.70;99.90
53310;DHT22;39197;53.200;5.792;2022-10-16T04:25:04;12.70;99.90
53310;DHT22;39197;53.200;5.792;2022-10-16T04:27:30;12.70;99.90
53310;DHT22;39197;53.200;5.792;2022-10-16T04:29:57;12.70;99.90
53310;DHT22;39197;53.200;5.792;2022-10-16T04:32:23;12.70;99.90
53310;DHT22;39197;53.200;5.792;2022-10-16T04:34:48;12.80;99.90
53310;DHT22;39197;53.200;5.792;2022-10-16T04:37:14;12.70;99.90
53310;DHT22;39197;53.200;5.792;2022-10-16T04:39:39;12.60;99.90
53310;DHT22;39197;53.200;5.792;2022-10-16T04:42:05;12.60;99.90
53310;DHT22;39197;53.200;5.792;2022-10-16T04:44:30;12.60;99.90
53310;DHT22;39197;53.200;5.792;2022-10-16T04:46:56;12.50;99.90
53310;DHT22;39197;53.200;5.792;2022-10-16T04:49:22;12.60;99.90
53310;DHT22;39197;53.200;5.792;2022-10-16T04:51:47;12.50;99.90
53310;DHT22;39197;53.200;5.792;2022-10-16T04:54:13;12.60;99.90
53310;DHT22;39197;53.200;5.792;2022-10-16T04:56:38;12.50;99.90
53310;DHT22;39197;53.200;5.792;2022-10-16T04:59:16;12.50;99.90
53310;DHT22;39197;53.200;5.792;2022-10-16T05:01:42;12.60;99.90
53310;DHT22;39197;53.200;5.792;2022-10-16T05:04:09;12.60;99.90
53310;DHT22;39197;53.200;5.792;2022-10-16T05:06:35;12.60;99.90
53310;DHT22;39197;53.200;5.792;2022-10-16T05:09:00;12.60;99.90
53310;DHT22;39197;53.200;5.792;2022-10-16T05:11:26;12.60;99.90
53310;DHT22;39197;53.200;5.792;2022-10-16T05:13:52;12.60;99.90
53310;DHT22;39197;53.200;5.792;2022-10-16T05:16:17;12.70;99.90
53310;DHT22;39197;53.200;5.792;2022-10-16T05:18:43;12.60;99.90
53310;DHT22;39197;53.200;5.792;2022-10-16T05:21:08;12.50;99.90
53310;DHT22;39197;53.200;5.792;2022-10-16T05:23:34;12.60;99.90
53310;DHT22;39197;53.200;5.792;2022-10-16T05:26:00;12.60;99.90
53310;DHT22;39197;53.200;5.792;2022-10-16T05:28:26;12.60;99.90
53310;DHT22;39197;53.200;5.792;2022-10-16T05:30:52;12.60;99.90
53310;DHT22;39197;53.200;5.792;2022-10-16T05:33:20;12.60;99.90
53310;DHT22;39197;53.200;5.792;2022-10-16T05:35:46;12.60;99.90
53310;DHT22;39197;53.200;5.792;2022-10-16T05:38:11;12.60;99.90
53310;DHT22;39197;53.200;5.792;2022-10-16T05:40:37;12.60;99.90
53310;DHT22;39197;53.200;5.792;2022-10-16T05:43:03;12.60;99.90
53310;DHT22;39197;53.200;5.792;2022-10-16T05:45:28;12.50;99.90
53310;DHT22;39197;53.200;5.792;2022-10-16T05:47:54;12.40;99.90
53310;DHT22;39197;53.200;5.792;2022-10-16T05:50:19;12.50;99.90
53310;DHT22;39197;53.200;5.792;2022-10-16T05:52:45;12.50;99.90
53310;DHT22;39197;53.200;5.792;2022-10-16T05:55:11;12.50;99.90
53310;DHT22;39197;53.200;5.792;2022-10-16T05:57:36;12.50;99.90
53310;DHT22;39197;53.200;5.792;2022-10-16T06:00:03;12.50;99.90
53310;DHT22;39197;53.200;5.792;2022-10-16T06:02:29;12.50;99.90
53310;DHT22;39197;53.200;5.792;2022-10-16T06:04:54;12.50;99.90
53310;DHT22;39197;53.200;5.792;2022-10-16T06:07:20;12.50;99.90
53310;DHT22;39197;53.200;5.792;2022-10-16T06:09:50;12.50;99.90
53310;DHT22;39197;53.200;5.792;2022-10-16T06:12:16;12.50;99.90
53310;DHT22;39197;53.200;5.792;2022-10-16T06:14:42;12.50;99.90
53310;DHT22;39197;53.200;5.792;2022-10-16T06:17:07;12.60;99.90
53310;DHT22;39197;53.200;5.792;2022-10-16T06:19:33;12.50;99.90
53310;DHT22;39197;53.200;5.792;2022-10-16T06:21:59;12.50;99.90
53310;DHT22;39197;53.200;5.792;2022-10-16T06:24:25;12.50;99.90
53310;DHT22;39197;53.200;5.792;2022-10-16T06:26:50;12.60;99.90
53310;DHT22;39197;53.200;5.792;2022-10-16T06:29:16;12.50;99.90
53310;DHT22;39197;53.200;5.792;2022-10-16T06:31:42;12.60;99.90
53310;DHT22;39197;53.200;5.792;2022-10-16T06:34:10;12.50;99.90
53310;DHT22;39197;53.200;5.792;2022-10-16T06:36:37;12.60;99.90
53310;DHT22;39197;53.200;5.792;2022-10-16T06:39:04;12.70;99.90
53310;DHT22;39197;53.200;5.792;2022-10-16T06:41:30;12.70;99.90
53310;DHT22;39197;53.200;5.792;2022-10-16T06:43:56;12.70;99.90
53310;DHT22;39197;53.200;5.792;2022-10-16T06:46:23;12.80;99.90
53310;DHT22;39197;53.200;5.792;2022-10-16T06:48:49;12.80;99.90
53310;DHT22;39197;53.200;5.792;2022-10-16T06:51:20;12.70;99.90
53310;DHT22;39197;53.200;5.792;2022-10-16T06:53:51;12.70;99.90
53310;DHT22;39197;53.200;5.792;2022-10-16T06:56:20;12.70;99.90
53310;DHT22;39197;53.200;5.792;2022-10-16T06:58:47;12.80;99.90
53310;DHT22;39197;53.200;5.792;2022-10-16T07:01:13;12.90;99.90
53310;DHT22;39197;53.200;5.792;2022-10-16T07:03:40;12.80;99.90
53310;DHT22;39197;53.200;5.792;2022-10-16T07:06:08;12.80;99.90
53310;DHT22;39197;53.200;5.792;2022-10-16T07:08:35;12.90;99.90
53310;DHT22;39197;53.200;5.792;2022-10-16T07:11:04;12.90;99.90
53310;DHT22;39197;53.200;5.792;2022-10-16T07:13:31;12.90;99.90
53310;DHT22;39197;53.200;5.792;2022-10-16T07:15:57;12.80;99.90
53310;DHT22;39197;53.200;5.792;2022-10-16T07:18:23;12.80;99.90
53310;DHT22;39197;53.200;5.792;2022-10-16T07:20:52;12.70;99.90
53310;DHT22;39197;53.200;5.792;2022-10-16T07:23:18;12.80;99.90
53310;DHT22;39197;53.200;5.792;2022-10-16T07:25:43;13.00;99.90
53310;DHT22;39197;53.200;5.792;2022-10-16T07:28:09;13.40;99.90
53310;DHT22;39197;53.200;5.792;2022-10-16T07:30:35;13.90;99.90
53310;DHT22;39197;53.200;5.792;2022-10-16T07:33:02;14.20;99.90
53310;DHT22;39197;53.200;5.792;2022-10-16T07:35:28;14.50;99.90
53310;DHT22;39197;53.200;5.792;2022-10-16T07:37:53;14.50;99.90
53310;DHT22;39197;53.200;5.792;2022-10-16T07:40:19;14.60;99.90
53310;DHT22;39197;53.200;5.792;2022-10-16T07:42:44;14.50;99.90
53310;DHT22;39197;53.200;5.792;2022-10-16T07:45:10;14.40;99.90
53310;DHT22;39197;53.200;5.792;2022-10-16T07:47:35;14.40;99.90
53310;DHT22;39197;53.200;5.792;2022-10-16T07:50:01;14.30;99.90
53310;DHT22;39197;53.200;5.792;2022-10-16T07:52:26;14.10;99.90
53310;DHT22;39197;53.200;5.792;2022-10-16T07:54:52;13.90;99.90
53310;DHT22;39197;53.200;5.792;2022-10-16T07:57:17;13.70;99.90
53310;DHT22;39197;53.200;5.792;2022-10-16T07:59:45;13.70;99.90
53310;DHT22;39197;53.200;5.792;2022-10-16T08:02:11;13.60;99.90
53310;DHT22;39197;53.200;5.792;2022-10-16T08:04:37;13.60;99.90
53310;DHT22;39197;53.200;5.792;2022-10-16T08:07:03;13.50;99.90
53310;DHT22;39197;53.200;5.792;2022-10-16T08:09:28;13.50;99.90
53310;DHT22;39197;53.200;5.792;2022-10-16T08:11:54;13.40;99.90
53310;DHT22;39197;53.200;5.792;2022-10-16T08:14:19;13.40;99.90
53310;DHT22;39197;53.200;5.792;2022-10-16T08:16:45;13.30;99.90
53310;DHT22;39197;53.200;5.792;2022-10-16T08:19:10;13.30;99.90
53310;DHT22;39197;53.200;5.792;2022-10-16T08:21:36;13.30;99.90
53310;DHT22;39197;53.200;5.792;2022-10-16T08:24:02;13.30;99.90
53310;DHT22;39197;53.200;5.792;2022-10-16T08:26:27;13.40;99.90
53310;DHT22;39197;53.200;5.792;2022-10-16T08:28:53;13.60;99.90
53310;DHT22;39197;53.200;5.792;2022-10-16T08:31:20;14.00;99.90
53310;DHT22;39197;53.200;5.792;2022-10-16T08:33:45;14.40;99.90
53310;DHT22;39197;53.200;5.792;2022-10-16T08:36:13;15.10;99.90
53310;DHT22;39197;53.200;5.792;2022-10-16T08:38:39;15.80;99.90
53310;DHT22;39197;53.200;5.792;2022-10-16T08:49:26;15.90;99.90
53310;DHT22;39197;53.200;5.792;2022-10-16T08:51:52;16.50;99.90
53310;DHT22;39197;53.200;5.792;2022-10-16T08:54:30;16.70;99.90
53310;DHT22;39197;53.200;5.792;2022-10-16T08:57:14;16.90;99.90
53310;DHT22;39197;53.200;5.792;2022-10-16T08:59:41;17.00;99.90
53310;DHT22;39197;53.200;5.792;2022-10-16T09:02:32;17.00;99.90
53310;DHT22;39197;53.200;5.792;2022-10-16T09:11:00;18.20;99.90
53310;DHT22;39197;53.200;5.792;2022-10-16T09:16:19;18.10;99.90
53310;DHT22;39197;53.200;5.792;2022-10-16T09:19:12;18.00;99.90
53310;DHT22;39197;53.200;5.792;2022-10-16T09:21:44;17.70;99.90
53310;DHT22;39197;53.200;5.792;2022-10-16T09:24:15;17.10;99.90
53310;DHT22;39197;53.200;5.792;2022-10-16T09:26:42;16.60;99.90
53310;DHT22;39197;53.200;5.792;2022-10-16T09:29:20;16.50;99.90
53310;DHT22;39197;53.200;5.792;2022-10-16T09:31:47;16.50;99.90
53310;DHT22;39197;53.200;5.792;2022-10-16T09:34:35;16.60;99.90
53310;DHT22;39197;53.200;5.792;2022-10-16T09:37:05;16.80;99.90
53310;DHT22;39197;53.200;5.792;2022-10-16T09:39:51;16.90;99.90
53310;DHT22;39197;53.200;5.792;2022-10-16T09:42:31;17.10;99.90
53310;DHT22;39197;53.200;5.792;2022-10-16T09:44:57;17.50;99.90
53310;DHT22;39197;53.200;5.792;2022-10-16T09:47:28;17.80;99.90
53310;DHT22;39197;53.200;5.792;2022-10-16T09:50:00;18.00;99.90
53310;DHT22;39197;53.200;5.792;2022-10-16T09:52:28;18.40;99.90
53310;DHT22;39197;53.200;5.792;2022-10-16T09:54:57;18.60;99.90
53310;DHT22;39197;53.200;5.792;2022-10-16T09:57:23;18.30;99.90
53310;DHT22;39197;53.200;5.792;2022-10-16T09:59:52;18.00;99.90
53310;DHT22;39197;53.200;5.792;2022-10-16T10:02:34;17.60;99.90
53310;DHT22;39197;53.200;5.792;2022-10-16T10:05:00;17.30;99.90
53310;DHT22;39197;53.200;5.792;2022-10-16T10:07:28;16.90;99.90
53310;DHT22;39197;53.200;5.792;2022-10-16T10:09:58;16.70;99.90
53310;DHT22;39197;53.200;5.792;2022-10-16T10:12:28;16.50;99.90
53310;DHT22;39197;53.200;5.792;2022-10-16T10:14:58;16.20;99.90
53310;DHT22;39197;53.200;5.792;2022-10-16T10:17:28;16.10;99.90
53310;DHT22;39197;53.200;5.792;2022-10-16T10:19:58;16.20;99.90
53310;DHT22;39197;53.200;5.792;2022-10-16T10:22:30;16.60;99.90
53310;DHT22;39197;53.200;5.792;2022-10-16T10:27:53;16.90;99.90
53310;DHT22;39197;53.200;5.792;2022-10-16T10:39:01;18.00;99.90
53310;DHT22;39197;53.200;5.792;2022-10-16T10:47:31;18.40;99.90
53310;DHT22;39197;53.200;5.792;2022-10-16T10:52:38;18.50;99.90
53310;DHT22;39197;53.200;5.792;2022-10-16T10:55:23;18.40;99.90
53310;DHT22;39197;53.200;5.792;2022-10-16T11:01:12;19.10;99.90
53310;DHT22;39197;53.200;5.792;2022-10-16T11:04:05;19.30;99.90
53310;DHT22;39197;53.200;5.792;2022-10-16T11:06:43;19.30;99.90
53310;DHT22;39197;53.200;5.792;2022-10-16T11:09:30;19.40;99.90
53310;DHT22;39197;53.200;5.792;2022-10-16T11:12:19;19.40;99.90
53310;DHT22;39197;53.200;5.792;2022-10-16T11:15:02;19.70;99.90
53310;DHT22;39197;53.200;5.792;2022-10-16T11:17:32;19.90;99.90
53310;DHT22;39197;53.200;5.792;2022-10-16T11:22:57;19.50;99.90
53310;DHT22;39197;53.200;5.792;2022-10-16T11:25:31;19.30;99.90
53310;DHT22;39197;53.200;5.792;2022-10-16T11:30:53;19.20;99.90
53310;DHT22;39197;53.200;5.792;2022-10-16T11:33:31;19.20;99.90
53310;DHT22;39197;53.200;5.792;2022-10-16T11:36:21;19.30;99.90
53310;DHT22;39197;53.200;5.792;2022-10-16T11:41:49;20.00;99.90
53310;DHT22;39197;53.200;5.792;2022-10-16T11:49:31;18.90;99.90
53310;DHT22;39197;53.200;5.792;2022-10-16T11:54:54;18.60;99.90
53310;DHT22;39197;53.200;5.792;2022-10-16T11:57:24;18.60;99.90
53310;DHT22;39197;53.200;5.792;2022-10-16T12:00:10;18.80;99.90
53310;DHT22;39197;53.200;5.792;2022-10-16T12:05:29;18.70;99.90
53310;DHT22;39197;53.200;5.792;2022-10-16T12:08:14;18.90;99.90
53310;DHT22;39197;53.200;5.792;2022-10-16T12:10:43;18.60;99.90
53310;DHT22;39197;53.200;5.792;2022-10-16T12:18:30;18.50;99.90
53310;DHT22;39197;53.200;5.792;2022-10-16T12:20:59;18.20;99.90
53310;DHT22;39197;53.200;5.792;2022-10-16T12:23:32;17.90;99.90
53310;DHT22;39197;53.200;5.792;2022-10-16T12:25:59;17.60;99.90
53310;DHT22;39197;53.200;5.792;2022-10-16T12:28:30;17.30;99.90
53310;DHT22;39197;53.200;5.792;2022-10-16T12:33:28;17.00;99.90
53310;DHT22;39197;53.200;5.792;2022-10-16T12:35:55;16.90;99.90
53310;DHT22;39197;53.200;5.792;2022-10-16T12:38:28;16.90;99.90
53310;DHT22;39197;53.200;5.792;2022-10-16T12:41:02;17.20;99.90
53310;DHT22;39197;53.200;5.792;2022-10-16T12:46:51;18.00;99.90
53310;DHT22;39197;53.200;5.792;2022-10-16T12:48:51;18.30;99.90
53310;DHT22;39197;53.200;5.792;2022-10-16T12:51:25;18.50;99.90
53310;DHT22;39197;53.200;5.792;2022-10-16T12:54:22;18.50;99.90
53310;DHT22;39197;53.200;5.792;2022-10-16T12:56:53;18.70;99.90
53310;DHT22;39197;53.200;5.792;2022-10-16T13:05:13;18.60;99.90
53310;DHT22;39197;53.200;5.792;2022-10-16T13:27:56;18.30;99.90
53310;DHT22;39197;53.200;5.792;2022-10-16T13:30:25;18.00;99.90
53310;DHT22;39197;53.200;5.792;2022-10-16T13:33:01;17.90;99.90
53310;DHT22;39197;53.200;5.792;2022-10-16T13:35:33;18.00;99.90
53310;DHT22;39197;53.200;5.792;2022-10-16T13:38:12;18.10;99.90
53310;DHT22;39197;53.200;5.792;2022-10-16T13:40:55;18.10;99.90
53310;DHT22;39197;53.200;5.792;2022-10-16T13:43:24;18.00;99.90
53310;DHT22;39197;53.200;5.792;2022-10-16T13:46:02;18.20;99.90
53310;DHT22;39197;53.200;5.792;2022-10-16T13:48:30;18.30;99.90
53310;DHT22;39197;53.200;5.792;2022-10-16T13:51:16;18.50;99.90
53310;DHT22;39197;53.200;5.792;2022-10-16T13:53:43;18.60;99.90
53310;DHT22;39197;53.200;5.792;2022-10-16T13:56:18;18.80;99.90
53310;DHT22;39197;53.200;5.792;2022-10-16T13:58:45;18.40;99.90
53310;DHT22;39197;53.200;5.792;2022-10-16T14:01:17;18.20;99.90
53310;DHT22;39197;53.200;5.792;2022-10-16T14:03:44;18.30;99.90
53310;DHT22;39197;53.200;5.792;2022-10-16T14:06:16;18.50;99.90
53310;DHT22;39197;53.200;5.792;2022-10-16T14:08:45;18.90;99.90
53310;DHT22;39197;53.200;5.792;2022-10-16T14:11:21;19.20;99.90
53310;DHT22;39197;53.200;5.792;2022-10-16T14:13:49;19.40;99.90
53310;DHT22;39197;53.200;5.792;2022-10-16T14:16:21;20.00;99.90
53310;DHT22;39197;53.200;5.792;2022-10-16T14:21:20;20.80;99.90
53310;DHT22;39197;53.200;5.792;2022-10-16T14:23:46;21.00;99.90
53310;DHT22;39197;53.200;5.792;2022-10-16T14:26:13;20.70;99.90
53310;DHT22;39197;53.200;5.792;2022-10-16T14:28:40;20.40;99.90
53310;DHT22;39197;53.200;5.792;2022-10-16T14:33:50;19.30;99.90
53310;DHT22;39197;53.200;5.792;2022-10-16T14:36:16;19.40;99.90
53310;DHT22;39197;53.200;5.792;2022-10-16T14:41:21;18.80;99.90
53310;DHT22;39197;53.200;5.792;2022-10-16T14:43:51;18.60;99.90
53310;DHT22;39197;53.200;5.792;2022-10-16T14:46:20;18.10;99.90
53310;DHT22;39197;53.200;5.792;2022-10-16T14:48:49;17.80;99.90
53310;DHT22;39197;53.200;5.792;2022-10-16T14:51:16;17.60;99.90
53310;DHT22;39197;53.200;5.792;2022-10-16T14:53:42;17.40;99.90
53310;DHT22;39197;53.200;5.792;2022-10-16T14:56:14;17.20;99.90
53310;DHT22;39197;53.200;5.792;2022-10-16T14:58:41;17.00;99.90
53310;DHT22;39197;53.200;5.792;2022-10-16T15:01:08;16.80;99.90
53310;DHT22;39197;53.200;5.792;2022-10-16T15:03:36;16.70;99.90
53310;DHT22;39197;53.200;5.792;2022-10-16T15:06:01;16.50;99.90
53310;DHT22;39197;53.200;5.792;2022-10-16T15:08:27;16.40;99.90
53310;DHT22;39197;53.200;5.792;2022-10-16T15:10:52;16.40;99.90
53310;DHT22;39197;53.200;5.792;2022-10-16T15:13:18;16.30;99.90
53310;DHT22;39197;53.200;5.792;2022-10-16T15:15:46;16.30;99.90
53310;DHT22;39197;53.200;5.792;2022-10-16T15:18:12;16.20;99.90
53310;DHT22;39197;53.200;5.792;2022-10-16T15:20:40;16.10;99.90
53310;DHT22;39197;53.200;5.792;2022-10-16T15:23:13;16.00;99.90
53310;DHT22;39197;53.200;5.792;2022-10-16T15:25:46;15.90;99.90
53310;DHT22;39197;53.200;5.792;2022-10-16T15:28:14;15.80;99.90
53310;DHT22;39197;53.200;5.792;2022-10-16T15:30:40;15.70;99.90
53310;DHT22;39197;53.200;5.792;2022-10-16T15:33:12;15.70;99.90
53310;DHT22;39197;53.200;5.792;2022-10-16T15:35:39;15.60;99.90
53310;DHT22;39197;53.200;5.792;2022-10-16T15:38:04;15.50;99.90
53310;DHT22;39197;53.200;5.792;2022-10-16T15:40:30;15.50;99.90
53310;DHT22;39197;53.200;5.792;2022-10-16T15:42:55;15.40;99.90
53310;DHT22;39197;53.200;5.792;2022-10-16T15:45:21;15.40;99.90
53310;DHT22;39197;53.200;5.792;2022-10-16T15:47:47;15.30;99.90
53310;DHT22;39197;53.200;5.792;2022-10-16T15:50:13;15.30;99.90
53310;DHT22;39197;53.200;5.792;2022-10-16T15:52:40;15.30;99.90
53310;DHT22;39197;53.200;5.792;2022-10-16T15:55:10;15.30;99.90
53310;DHT22;39197;53.200;5.792;2022-10-16T15:57:36;15.20;99.90
53310;DHT22;39197;53.200;5.792;2022-10-16T16:00:11;15.20;99.90
53310;DHT22;39197;53.200;5.792;2022-10-16T16:02:37;15.20;99.90
53310;DHT22;39197;53.200;5.792;2022-10-16T16:05:02;15.10;99.90
53310;DHT22;39197;53.200;5.792;2022-10-16T16:07:32;15.10;99.90
53310;DHT22;39197;53.200;5.792;2022-10-16T16:09:57;15.10;99.90
53310;DHT22;39197;53.200;5.792;2022-10-16T16:12:23;15.00;99.90
53310;DHT22;39197;53.200;5.792;2022-10-16T16:14:48;15.00;99.90
53310;DHT22;39197;53.200;5.792;2022-10-16T16:17:14;15.00;99.90
53310;DHT22;39197;53.200;5.792;2022-10-16T16:19:40;15.00;99.90
53310;DHT22;39197;53.200;5.792;2022-10-16T16:22:05;14.90;99.90
53310;DHT22;39197;53.200;5.792;2022-10-16T16:24:31;14.90;99.90
53310;DHT22;39197;53.200;5.792;2022-10-16T16:26:57;14.80;99.90
53310;DHT22;39197;53.200;5.792;2022-10-16T16:29:22;14.80;99.90
53310;DHT22;39197;53.200;5.792;2022-10-16T16:31:48;14.70;99.90
53310;DHT22;39197;53.200;5.792;2022-10-16T16:34:14;14.60;99.90
53310;DHT22;39197;53.200;5.792;2022-10-16T16:36:40;14.60;99.90
53310;DHT22;39197;53.200;5.792;2022-10-16T16:39:06;14.60;99.90
53310;DHT22;39197;53.200;5.792;2022-10-16T16:41:32;14.60;99.90
53310;DHT22;39197;53.200;5.792;2022-10-16T16:44:06;14.60;99.90
53310;DHT22;39197;53.200;5.792;2022-10-16T16:46:33;14.50;99.90
53310;DHT22;39197;53.200;5.792;2022-10-16T16:48:59;14.50;99.90
53310;DHT22;39197;53.200;5.792;2022-10-16T16:51:25;14.40;99.90
53310;DHT22;39197;53.200;5.792;2022-10-16T16:53:52;14.30;99.90
53310;DHT22;39197;53.200;5.792;2022-10-16T16:56:19;14.30;99.90
53310;DHT22;39197;53.200;5.792;2022-10-16T16:58:47;14.20;99.90
53310;DHT22;39197;53.200;5.792;2022-10-16T17:01:13;14.20;99.90
53310;DHT22;39197;53.200;5.792;2022-10-16T17:03:42;14.20;99.90
53310;DHT22;39197;53.200;5.792;2022-10-16T17:06:11;14.20;99.90
53310;DHT22;39197;53.200;5.792;2022-10-16T17:08:38;14.30;99.90
53310;DHT22;39197;53.200;5.792;2022-10-16T17:11:05;14.30;99.90
53310;DHT22;39197;53.200;5.792;2022-10-16T17:13:34;14.30;99.90
53310;DHT22;39197;53.200;5.792;2022-10-16T17:16:02;14.30;99.90
53310;DHT22;39197;53.200;5.792;2022-10-16T17:18:28;14.30;99.90
53310;DHT22;39197;53.200;5.792;2022-10-16T17:20:54;14.30;99.90
53310;DHT22;39197;53.200;5.792;2022-10-16T17:23:19;14.30;99.90
53310;DHT22;39197;53.200;5.792;2022-10-16T17:25:45;14.30;99.90
53310;DHT22;39197;53.200;5.792;2022-10-16T17:28:12;14.20;99.90
53310;DHT22;39197;53.200;5.792;2022-10-16T17:30:39;14.20;99.90
53310;DHT22;39197;53.200;5.792;2022-10-16T17:33:06;14.10;99.90
53310;DHT22;39197;53.200;5.792;2022-10-16T17:35:50;14.10;99.90
53310;DHT22;39197;53.200;5.792;2022-10-16T17:38:15;14.10;99.90